Time;durP1;ratioP1;P1;durP2;ratioP2;P2;SDS_P1;SDS_P2;PMS_P1;PMS_P2;Temp;Humidity;BMP_temperature;BMP_pressure;BME280_temperature;BME280_humidity;BME280_pressure;Samples;Min_cycle;Max_cycle;Signal;HPM_P1;HPM_P2
2019/08/29 00:00:35;;;;;;;9.1;8.299999;;;;;;;20.05;100;95444.21;;;;
2019/08/29 00:01:40;;;;;;;9.1;8.299999;;;;;;;20.05;100;95444.21;;;;
2019/08/29 00:02:41;;;;;;;9.1;8.299999;;;;;;;20.05;100;95444.21;;;;
2019/08/29 00:03:42;;;;;;;8.650001;7.95;;;;;;;20.04;100;95446.7;;;;
2019/08/29 00:04:44;;;;;;;8.650001;7.95;;;;;;;20.04;100;95446.7;;;;
2019/08/29 00:05:45;;;;;;;9.150001;8.349999;;;;;;;20.02;100;95449.33;;;;
2019/08/29 00:06:46;;;;;;;9.150001;8.349999;;;;;;;20.02;100;95449.33;;;;
2019/08/29 00:07:48;;;;;;;9.150001;8.349999;;;;;;;20.02;100;95449.33;;;;
2019/08/29 00:08:49;;;;;;;8.65;7.849999;;;;;;;20.02;100;95455.35;;;;
2019/08/29 00:09:50;;;;;;;8.65;7.849999;;;;;;;20.02;100;95455.35;;;;
2019/08/29 00:10:51;;;;;;;8.65;7.849999;;;;;;;20.02;100;95455.35;;;;
2019/08/29 00:11:52;;;;;;;8.800002;7.999999;;;;;;;20;100;95455.65;;;;
2019/08/29 00:12:54;;;;;;;8.800002;7.999999;;;;;;;20;100;95455.65;;;;
2019/08/29 00:13:55;;;;;;;9.1;8.3;;;;;;;19.98;100;95447.31;;;;
2019/08/29 00:14:56;;;;;;;9.1;8.3;;;;;;;19.98;100;95447.31;;;;
2019/08/29 00:15:57;;;;;;;9.1;8.3;;;;;;;19.98;100;95447.31;;;;
2019/08/29 00:16:58;;;;;;;9.1;8.3;;;;;;;19.97;100;95446.2;;;;
2019/08/29 00:18:00;;;;;;;9.1;8.3;;;;;;;19.97;100;95446.2;;;;
2019/08/29 00:19:01;;;;;;;8.9;8.1;;;;;;;19.95;100;95450.2;;;;
2019/08/29 00:20:02;;;;;;;8.9;8.1;;;;;;;19.95;100;95450.2;;;;
2019/08/29 00:21:04;;;;;;;8.9;8.1;;;;;;;19.95;100;95450.2;;;;
2019/08/29 00:22:06;;;;;;;8.55;7.75;;;;;;;19.94;100;95443.51;;;;
2019/08/29 00:23:07;;;;;;;8.55;7.75;;;;;;;19.94;100;95443.51;;;;
2019/08/29 00:24:08;;;;;;;7.999999;7.25;;;;;;;19.93;100;95441.48;;;;
2019/08/29 00:25:10;;;;;;;7.999999;7.25;;;;;;;19.93;100;95441.48;;;;
2019/08/29 00:26:11;;;;;;;7.999999;7.25;;;;;;;19.93;100;95441.48;;;;
2019/08/29 00:27:12;;;;;;;7.849999;7.000001;;;;;;;19.92;100;95439.83;;;;
2019/08/29 00:28:13;;;;;;;7.849999;7.000001;;;;;;;19.92;100;95439.83;;;;
2019/08/29 00:29:14;;;;;;;7.849999;7.000001;;;;;;;19.92;100;95439.83;;;;
2019/08/29 00:30:16;;;;;;;7.900001;7.2;;;;;;;19.91;100;95435.05;;;;
2019/08/29 00:31:18;;;;;;;7.900001;7.2;;;;;;;19.91;100;95435.05;;;;
2019/08/29 00:32:19;;;;;;;7.95;7.2;;;;;;;19.9;100;95439.84;;;;
2019/08/29 00:33:20;;;;;;;7.95;7.2;;;;;;;19.9;100;95439.84;;;;
2019/08/29 00:34:21;;;;;;;7.95;7.2;;;;;;;19.9;100;95439.84;;;;
2019/08/29 00:35:22;;;;;;;7.95;7.249999;;;;;;;19.88;100;95446.03;;;;
2019/08/29 00:36:26;;;;;;;7.95;7.249999;;;;;;;19.88;100;95446.03;;;;
2019/08/29 00:37:27;;;;;;;8;7.299999;;;;;;;19.87;100;95450.02;;;;
2019/08/29 00:38:28;;;;;;;8;7.299999;;;;;;;19.87;100;95450.02;;;;
2019/08/29 00:39:29;;;;;;;8;7.299999;;;;;;;19.87;100;95450.02;;;;
2019/08/29 00:40:30;;;;;;;7.649999;6.95;;;;;;;19.85;100;95451.68;;;;
2019/08/29 00:41:32;;;;;;;7.649999;6.95;;;;;;;19.85;100;95451.68;;;;
2019/08/29 00:42:33;;;;;;;7.649999;6.95;;;;;;;19.85;100;95451.68;;;;
2019/08/29 00:43:34;;;;;;;7.649999;6.95;;;;;;;19.83;100;95450.2;;;;
2019/08/29 00:44:35;;;;;;;7.649999;6.95;;;;;;;19.83;100;95450.2;;;;
2019/08/29 00:45:36;;;;;;;9.5;6.85;;;;;;;19.81;100;95449.66;;;;
2019/08/29 00:46:38;;;;;;;9.5;6.85;;;;;;;19.81;100;95449.66;;;;
2019/08/29 00:47:39;;;;;;;9.5;6.85;;;;;;;19.81;100;95449.66;;;;
2019/08/29 00:48:40;;;;;;;7.2;6.6;;;;;;;19.8;100;95447.22;;;;
2019/08/29 00:49:41;;;;;;;7.2;6.6;;;;;;;19.8;100;95447.22;;;;
2019/08/29 00:50:42;;;;;;;7.249999;6.55;;;;;;;19.78;100;95446.69;;;;
2019/08/29 00:51:43;;;;;;;7.249999;6.55;;;;;;;19.78;100;95446.69;;;;
2019/08/29 00:52:44;;;;;;;7.249999;6.55;;;;;;;19.78;100;95446.69;;;;
2019/08/29 00:53:46;;;;;;;7.15;6.55;;;;;;;19.76;100;95446.98;;;;
2019/08/29 00:54:47;;;;;;;7.15;6.55;;;;;;;19.76;100;95446.98;;;;
2019/08/29 00:55:48;;;;;;;7.15;6.55;;;;;;;19.76;100;95446.98;;;;
2019/08/29 00:56:49;;;;;;;6.9;6.3;;;;;;;19.74;100;95438.23;;;;
2019/08/29 00:57:50;;;;;;;6.9;6.3;;;;;;;19.74;100;95438.23;;;;
2019/08/29 00:58:56;;;;;;;6.8;6.199999;;;;;;;19.73;100;95439.34;;;;
2019/08/29 00:59:58;;;;;;;6.8;6.199999;;;;;;;19.73;100;95439.34;;;;
2019/08/29 01:00:59;;;;;;;6.8;6.199999;;;;;;;19.73;100;95439.34;;;;
2019/08/29 01:02:32;;;;;;;7.499999;6.849999;;;;;;;19.73;100;95445.37;;;;
2019/08/29 01:03:34;;;;;;;7.499999;6.849999;;;;;;;19.73;100;95445.37;;;;
2019/08/29 01:04:35;;;;;;;7.7;7;;;;;;;19.71;100;95445.67;;;;
2019/08/29 01:05:36;;;;;;;7.7;7;;;;;;;19.71;100;95445.67;;;;
2019/08/29 01:06:37;;;;;;;8.799999;7.05;;;;;;;19.7;100;95438.95;;;;
2019/08/29 01:07:39;;;;;;;8.799999;7.05;;;;;;;19.7;100;95438.95;;;;
2019/08/29 01:08:40;;;;;;;8.799999;7.05;;;;;;;19.7;100;95438.95;;;;
2019/08/29 01:09:47;;;;;;;7.95;7.2;;;;;;;19.69;100;95448.83;;;;
2019/08/29 01:10:50;;;;;;;7.95;7.2;;;;;;;19.69;100;95448.83;;;;
2019/08/29 01:11:51;;;;;;;8;7.299999;;;;;;;19.67;100;95445.56;;;;
2019/08/29 01:12:53;;;;;;;8;7.299999;;;;;;;19.67;100;95445.56;;;;
2019/08/29 01:13:56;;;;;;;8;7.299999;;;;;;;19.67;100;95445.56;;;;
2019/08/29 01:15:07;;;;;;;7.6;6.95;;;;;;;19.65;100;95437.63;;;;
2019/08/29 01:16:09;;;;;;;7.6;6.95;;;;;;;19.65;100;95437.63;;;;
2019/08/29 01:17:11;;;;;;;7.7;7;;;;;;;19.65;100;95441.88;;;;
2019/08/29 01:18:12;;;;;;;7.7;7;;;;;;;19.65;100;95441.88;;;;
2019/08/29 01:19:13;;;;;;;7.7;7;;;;;;;19.65;100;95441.88;;;;
2019/08/29 01:20:15;;;;;;;7.4;6.699999;;;;;;;19.63;100;95440.8;;;;
2019/08/29 01:21:18;;;;;;;7.4;6.699999;;;;;;;19.63;100;95440.8;;;;
2019/08/29 01:22:19;;;;;;;7.4;6.699999;;;;;;;19.63;100;95440.8;;;;
2019/08/29 01:23:20;;;;;;;7.9;7.1;;;;;;;19.62;100;95438.22;;;;
2019/08/29 01:24:22;;;;;;;7.9;7.1;;;;;;;19.62;100;95438.22;;;;
2019/08/29 01:25:23;;;;;;;7.900001;7.149999;;;;;;;19.61;100;95434.79;;;;
2019/08/29 01:26:25;;;;;;;7.900001;7.149999;;;;;;;19.61;100;95434.79;;;;
2019/08/29 01:27:26;;;;;;;7.900001;7.149999;;;;;;;19.61;100;95434.79;;;;
2019/08/29 01:28:27;;;;;;;7.649999;6.95;;;;;;;19.61;100;95438.89;;;;
2019/08/29 01:29:28;;;;;;;7.649999;6.95;;;;;;;19.61;100;95438.89;;;;
2019/08/29 01:30:29;;;;;;;8.149999;7.349999;;;;;;;19.61;100;95425.78;;;;
2019/08/29 01:31:32;;;;;;;8.149999;7.349999;;;;;;;19.61;100;95425.78;;;;
2019/08/29 01:32:33;;;;;;;8.149999;7.349999;;;;;;;19.61;100;95425.78;;;;
2019/08/29 01:33:34;;;;;;;7.900001;7.1;;;;;;;19.59;100;95424.67;;;;
2019/08/29 01:34:35;;;;;;;7.900001;7.1;;;;;;;19.59;100;95424.67;;;;
2019/08/29 01:35:37;;;;;;;7.900001;7.1;;;;;;;19.59;100;95424.67;;;;
2019/08/29 01:36:38;;;;;;;8.25;7.45;;;;;;;19.59;100;95427.98;;;;
2019/08/29 01:37:39;;;;;;;8.25;7.45;;;;;;;19.59;100;95427.98;;;;
2019/08/29 01:38:40;;;;;;;8.100002;7.349999;;;;;;;19.58;100;95424;;;;
2019/08/29 01:39:41;;;;;;;8.100002;7.349999;;;;;;;19.58;100;95424;;;;
2019/08/29 01:40:43;;;;;;;8.100002;7.349999;;;;;;;19.58;100;95424;;;;
2019/08/29 01:41:44;;;;;;;8.1;7.300001;;;;;;;19.57;100;95421.01;;;;
2019/08/29 01:42:45;;;;;;;8.1;7.300001;;;;;;;19.57;100;95421.01;;;;
2019/08/29 01:43:47;;;;;;;7.85;7.1;;;;;;;19.56;100;95424.3;;;;
2019/08/29 01:44:48;;;;;;;7.85;7.1;;;;;;;19.56;100;95424.3;;;;
2019/08/29 01:45:49;;;;;;;7.85;7.1;;;;;;;19.56;100;95424.3;;;;
2019/08/29 01:46:51;;;;;;;8.15;7.35;;;;;;;19.55;100;95415.8;;;;
2019/08/29 01:47:52;;;;;;;8.15;7.35;;;;;;;19.55;100;95415.8;;;;
2019/08/29 01:48:53;;;;;;;8.15;7.35;;;;;;;19.55;100;95415.8;;;;
2019/08/29 01:49:54;;;;;;;7.5;6.699999;;;;;;;19.55;100;95414.04;;;;
2019/08/29 01:50:55;;;;;;;7.5;6.699999;;;;;;;19.55;100;95414.04;;;;
2019/08/29 01:51:57;;;;;;;7.5;6.699999;;;;;;;19.55;100;95414.04;;;;
2019/08/29 01:52:59;;;;;;;7.5;6.699999;;;;;;;19.55;100;95414.04;;;;
2019/08/29 01:54:00;;;;;;;7.5;6.699999;;;;;;;19.55;100;95414.04;;;;
2019/08/29 01:55:01;;;;;;;7.5;6.699999;;;;;;;19.55;100;95414.04;;;;
2019/08/29 01:56:03;;;;;;;7.5;6.699999;;;;;;;19.55;100;95414.04;;;;
2019/08/29 01:57:04;;;;;;;7.5;6.699999;;;;;;;19.55;100;95414.04;;;;
2019/08/29 01:58:05;;;;;;;7.5;6.699999;;;;;;;19.55;100;95414.04;;;;
2019/08/29 01:59:06;;;;;;;7.5;6.699999;;;;;;;19.55;100;95414.04;;;;
2019/08/29 02:00:10;;;;;;;7.6;6.75;;;;;;;19.24;100;95407.58;;;;
2019/08/29 02:01:12;;;;;;;7.6;6.75;;;;;;;19.24;100;95407.58;;;;
2019/08/29 02:02:13;;;;;;;7.85;7.05;;;;;;;19.23;100;95403.19;;;;
2019/08/29 02:03:15;;;;;;;7.85;7.05;;;;;;;19.23;100;95403.19;;;;
2019/08/29 02:04:16;;;;;;;7.85;7.05;;;;;;;19.23;100;95403.19;;;;
2019/08/29 02:05:17;;;;;;;7.599999;6.900001;;;;;;;19.25;100;95402.76;;;;
2019/08/29 02:06:19;;;;;;;7.599999;6.900001;;;;;;;19.25;100;95402.76;;;;
2019/08/29 02:07:21;;;;;;;7.599999;6.900001;;;;;;;19.25;100;95402.76;;;;
2019/08/29 02:08:22;;;;;;;8.099999;7.4;;;;;;;19.29;100;95402.59;;;;
2019/08/29 02:09:23;;;;;;;8.099999;7.4;;;;;;;19.29;100;95402.59;;;;
2019/08/29 02:10:25;;;;;;;8.75;8.050001;;;;;;;19.29;100;95401.09;;;;
2019/08/29 02:11:29;;;;;;;8.75;8.050001;;;;;;;19.29;100;95401.09;;;;
2019/08/29 02:12:31;;;;;;;8.75;8.050001;;;;;;;19.29;100;95401.09;;;;
2019/08/29 02:13:32;;;;;;;8.45;7.75;;;;;;;19.31;100;95397.69;;;;
2019/08/29 02:14:33;;;;;;;8.45;7.75;;;;;;;19.31;100;95397.69;;;;
2019/08/29 02:15:34;;;;;;;7.749999;7.05;;;;;;;19.31;100;95396.31;;;;
2019/08/29 02:16:38;;;;;;;7.749999;7.05;;;;;;;19.31;100;95396.31;;;;
2019/08/29 02:17:40;;;;;;;7.749999;7.05;;;;;;;19.31;100;95396.31;;;;
2019/08/29 02:18:41;;;;;;;7.749999;7.05;;;;;;;19.31;100;95396.31;;;;
2019/08/29 02:19:42;;;;;;;7.749999;7.05;;;;;;;19.31;100;95396.31;;;;
2019/08/29 02:20:43;;;;;;;7.749999;7.05;;;;;;;19.31;100;95396.31;;;;
2019/08/29 02:21:50;;;;;;;7.749999;7.05;;;;;;;19.31;100;95396.31;;;;
2019/08/29 02:22:51;;;;;;;7.749999;7.05;;;;;;;19.31;100;95396.31;;;;
2019/08/29 02:23:53;;;;;;;7.749999;7.05;;;;;;;19.31;100;95396.31;;;;
2019/08/29 02:24:54;;;;;;;7.749999;7.05;;;;;;;19.31;100;95396.31;;;;
2019/08/29 02:25:55;;;;;;;7.749999;7.05;;;;;;;19.31;100;95396.31;;;;
2019/08/29 02:26:56;;;;;;;9.050001;8.199999;;;;;;;18.97;100;95401.78;;;;
2019/08/29 02:27:58;;;;;;;9.050001;8.199999;;;;;;;18.97;100;95401.78;;;;
2019/08/29 02:28:59;;;;;;;8.849999;7.95;;;;;;;18.96;100;95395.64;;;;
2019/08/29 02:30:00;;;;;;;8.849999;7.95;;;;;;;18.96;100;95395.64;;;;
2019/08/29 02:31:02;;;;;;;8.849999;7.95;;;;;;;18.96;100;95395.64;;;;
2019/08/29 02:32:03;;;;;;;9.299998;8.35;;;;;;;19;100;95393.4;;;;
2019/08/29 02:33:04;;;;;;;9.299998;8.35;;;;;;;19;100;95393.4;;;;
2019/08/29 02:34:06;;;;;;;9.449998;8.549999;;;;;;;19.05;100;95397.63;;;;
2019/08/29 02:35:07;;;;;;;9.449998;8.549999;;;;;;;19.05;100;95397.63;;;;
2019/08/29 02:36:09;;;;;;;9.449998;8.549999;;;;;;;19.05;100;95397.63;;;;
2019/08/29 02:37:10;;;;;;;9.549999;8.65;;;;;;;19.08;100;95393.76;;;;
2019/08/29 02:38:12;;;;;;;9.549999;8.65;;;;;;;19.08;100;95393.76;;;;
2019/08/29 02:39:13;;;;;;;10.3;8.65;;;;;;;19.1;100;95391.55;;;;
2019/08/29 02:40:14;;;;;;;10.3;8.65;;;;;;;19.1;100;95391.55;;;;
2019/08/29 02:41:17;;;;;;;10.3;8.65;;;;;;;19.1;100;95391.55;;;;
2019/08/29 02:42:18;;;;;;;9.200001;8.4;;;;;;;19.13;100;95394.25;;;;
2019/08/29 02:43:19;;;;;;;9.200001;8.4;;;;;;;19.13;100;95394.25;;;;
2019/08/29 02:44:20;;;;;;;9.200001;8.4;;;;;;;19.13;100;95394.25;;;;
2019/08/29 02:45:22;;;;;;;9.35;8.45;;;;;;;19.14;100;95395.33;;;;
2019/08/29 02:46:26;;;;;;;9.35;8.45;;;;;;;19.14;100;95395.33;;;;
2019/08/29 02:47:27;;;;;;;9.35;8.45;;;;;;;19.14;100;95395.33;;;;
2019/08/29 02:48:28;;;;;;;9.35;8.45;;;;;;;19.14;100;95395.33;;;;
2019/08/29 02:49:30;;;;;;;9.35;8.45;;;;;;;19.14;100;95395.33;;;;
2019/08/29 02:50:31;;;;;;;9.35;8.45;;;;;;;19.14;100;95395.33;;;;
2019/08/29 02:51:33;;;;;;;9.35;8.45;;;;;;;19.14;100;95395.33;;;;
2019/08/29 02:52:34;;;;;;;9.35;8.45;;;;;;;19.14;100;95395.33;;;;
2019/08/29 02:53:35;;;;;;;9.35;8.45;;;;;;;19.14;100;95395.33;;;;
2019/08/29 02:54:36;;;;;;;9.35;8.45;;;;;;;19.14;100;95395.33;;;;
2019/08/29 02:55:37;;;;;;;9.349999;8.400001;;;;;;;18.84;100;95393.79;;;;
2019/08/29 02:56:39;;;;;;;9.349999;8.400001;;;;;;;18.84;100;95393.79;;;;
2019/08/29 02:57:40;;;;;;;9.349999;8.400001;;;;;;;18.84;100;95393.79;;;;
2019/08/29 02:58:41;;;;;;;9.550001;8.450001;;;;;;;18.85;100;95396.4;;;;
2019/08/29 02:59:42;;;;;;;9.550001;8.450001;;;;;;;18.85;100;95396.4;;;;
2019/08/29 03:00:43;;;;;;;9.550001;8.450001;;;;;;;18.85;100;95396.4;;;;
2019/08/29 03:01:45;;;;;;;9.550001;8.450001;;;;;;;18.85;100;95396.4;;;;
2019/08/29 03:02:46;;;;;;;9.550001;8.450001;;;;;;;18.85;100;95396.4;;;;
2019/08/29 03:03:47;;;;;;;9.550001;8.450001;;;;;;;18.85;100;95396.4;;;;
2019/08/29 03:04:48;;;;;;;9.550001;8.450001;;;;;;;18.85;100;95396.4;;;;
2019/08/29 03:05:49;;;;;;;9.550001;8.450001;;;;;;;18.85;100;95396.4;;;;
2019/08/29 03:06:51;;;;;;;9.550001;8.450001;;;;;;;18.85;100;95396.4;;;;
2019/08/29 03:07:52;;;;;;;9.550001;8.450001;;;;;;;18.85;100;95396.4;;;;
2019/08/29 03:08:53;;;;;;;9.849999;8.85;;;;;;;18.69;100;95405.27;;;;
2019/08/29 03:09:54;;;;;;;9.849999;8.85;;;;;;;18.69;100;95405.27;;;;
2019/08/29 03:10:55;;;;;;;9.849999;8.85;;;;;;;18.69;100;95405.27;;;;
2019/08/29 03:11:57;;;;;;;9.900001;9;;;;;;;18.7;100;95410.46;;;;
2019/08/29 03:12:58;;;;;;;9.900001;9;;;;;;;18.7;100;95410.46;;;;
2019/08/29 03:13:59;;;;;;;9.900001;9;;;;;;;18.7;100;95410.46;;;;
2019/08/29 03:15:00;;;;;;;9.900001;9;;;;;;;18.7;100;95410.46;;;;
2019/08/29 03:16:02;;;;;;;9.900001;9;;;;;;;18.7;100;95410.46;;;;
2019/08/29 03:17:03;;;;;;;9.900001;9;;;;;;;18.7;100;95410.46;;;;
2019/08/29 03:18:04;;;;;;;9.900001;9;;;;;;;18.7;100;95410.46;;;;
2019/08/29 03:19:06;;;;;;;9.900001;9;;;;;;;18.7;100;95410.46;;;;
2019/08/29 03:20:07;;;;;;;9.900001;9;;;;;;;18.7;100;95410.46;;;;
2019/08/29 03:21:09;;;;;;;9.900001;9;;;;;;;18.7;100;95410.46;;;;
2019/08/29 03:22:10;;;;;;;10.3;9.35;;;;;;;18.62;100;95438.55;;;;
2019/08/29 03:23:11;;;;;;;10.3;9.35;;;;;;;18.62;100;95438.55;;;;
2019/08/29 03:24:12;;;;;;;10.45;9.449999;;;;;;;18.65;100;95445.22;;;;
2019/08/29 03:25:14;;;;;;;10.45;9.449999;;;;;;;18.65;100;95445.22;;;;
2019/08/29 03:26:17;;;;;;;10.45;9.449999;;;;;;;18.65;100;95445.22;;;;
2019/08/29 03:27:18;;;;;;;10.45;9.449999;;;;;;;18.65;100;95445.22;;;;
2019/08/29 03:28:19;;;;;;;10.45;9.449999;;;;;;;18.65;100;95445.22;;;;
2019/08/29 03:29:21;;;;;;;10.45;9.449999;;;;;;;18.65;100;95445.22;;;;
2019/08/29 03:30:22;;;;;;;10.45;9.449999;;;;;;;18.65;100;95445.22;;;;
2019/08/29 03:31:24;;;;;;;10.45;9.449999;;;;;;;18.65;100;95445.22;;;;
2019/08/29 03:32:25;;;;;;;10.45;9.449999;;;;;;;18.65;100;95445.22;;;;
2019/08/29 03:33:27;;;;;;;10.45;9.449999;;;;;;;18.65;100;95445.22;;;;
2019/08/29 03:34:28;;;;;;;10.45;9.449999;;;;;;;18.65;100;95445.22;;;;
2019/08/29 03:35:29;;;;;;;9.35;8.450001;;;;;;;18.57;100;95447.16;;;;
2019/08/29 03:36:32;;;;;;;9.35;8.450001;;;;;;;18.57;100;95447.16;;;;
2019/08/29 03:37:33;;;;;;;8.999999;8.1;;;;;;;18.61;100;95450.56;;;;
2019/08/29 03:38:34;;;;;;;8.999999;8.1;;;;;;;18.61;100;95450.56;;;;
2019/08/29 03:39:35;;;;;;;8.999999;8.1;;;;;;;18.61;100;95450.56;;;;
2019/08/29 03:40:36;;;;;;;8.999999;8.1;;;;;;;18.61;100;95450.56;;;;
2019/08/29 03:41:38;;;;;;;8.999999;8.1;;;;;;;18.61;100;95450.56;;;;
2019/08/29 03:42:39;;;;;;;8.999999;8.1;;;;;;;18.61;100;95450.56;;;;
2019/08/29 03:43:40;;;;;;;8.999999;8.1;;;;;;;18.61;100;95450.56;;;;
2019/08/29 03:44:41;;;;;;;8.999999;8.1;;;;;;;18.61;100;95450.56;;;;
2019/08/29 03:45:42;;;;;;;8.999999;8.1;;;;;;;18.61;100;95450.56;;;;
2019/08/29 03:46:44;;;;;;;8.999999;8.1;;;;;;;18.61;100;95450.56;;;;
2019/08/29 03:47:45;;;;;;;8.999999;8.1;;;;;;;18.61;100;95450.56;;;;
2019/08/29 03:48:46;;;;;;;8.95;8.050001;;;;;;;18.55;100;95447.99;;;;
2019/08/29 03:49:47;;;;;;;8.95;8.050001;;;;;;;18.55;100;95447.99;;;;
2019/08/29 03:50:48;;;;;;;8.900001;8.000002;;;;;;;18.58;100;95445.12;;;;
2019/08/29 03:51:50;;;;;;;8.900001;8.000002;;;;;;;18.58;100;95445.12;;;;
2019/08/29 03:52:51;;;;;;;8.900001;8.000002;;;;;;;18.58;100;95445.12;;;;
2019/08/29 03:53:52;;;;;;;8.900001;8.000002;;;;;;;18.58;100;95445.12;;;;
2019/08/29 03:54:53;;;;;;;8.900001;8.000002;;;;;;;18.58;100;95445.12;;;;
2019/08/29 03:55:54;;;;;;;8.900001;8.000002;;;;;;;18.58;100;95445.12;;;;
2019/08/29 03:56:55;;;;;;;8.900001;8.000002;;;;;;;18.58;100;95445.12;;;;
2019/08/29 03:57:56;;;;;;;8.900001;8.000002;;;;;;;18.58;100;95445.12;;;;
2019/08/29 03:58:57;;;;;;;8.900001;8.000002;;;;;;;18.58;100;95445.12;;;;
2019/08/29 03:59:59;;;;;;;8.900001;8.000002;;;;;;;18.58;100;95445.12;;;;
2019/08/29 04:01:00;;;;;;;8.900001;8.000002;;;;;;;18.58;100;95445.12;;;;
2019/08/29 04:02:01;;;;;;;9.200002;8.299998;;;;;;;18.53;100;95451.01;;;;
2019/08/29 04:03:02;;;;;;;9.200002;8.299998;;;;;;;18.53;100;95451.01;;;;
2019/08/29 04:04:04;;;;;;;9.200002;8.299998;;;;;;;18.53;100;95451.01;;;;
2019/08/29 04:05:05;;;;;;;9.200002;8.299998;;;;;;;18.53;100;95451.01;;;;
2019/08/29 04:06:08;;;;;;;9.200002;8.299998;;;;;;;18.53;100;95451.01;;;;
2019/08/29 04:07:09;;;;;;;9.200002;8.299998;;;;;;;18.53;100;95451.01;;;;
2019/08/29 04:08:10;;;;;;;9.200002;8.299998;;;;;;;18.53;100;95451.01;;;;
2019/08/29 04:09:11;;;;;;;9.200002;8.299998;;;;;;;18.53;100;95451.01;;;;
2019/08/29 04:10:12;;;;;;;9.200002;8.299998;;;;;;;18.53;100;95451.01;;;;
2019/08/29 04:11:15;;;;;;;9.200002;8.299998;;;;;;;18.53;100;95451.01;;;;
2019/08/29 04:12:16;;;;;;;9.849999;8.6;;;;;;;18.51;100;95445;;;;
2019/08/29 04:13:17;;;;;;;9.849999;8.6;;;;;;;18.51;100;95445;;;;
2019/08/29 04:14:18;;;;;;;9.849999;8.6;;;;;;;18.51;100;95445;;;;
2019/08/29 04:15:20;;;;;;;9.849999;8.6;;;;;;;18.51;100;95445;;;;
2019/08/29 04:16:25;;;;;;;9.849999;8.6;;;;;;;18.51;100;95445;;;;
2019/08/29 04:17:26;;;;;;;9.849999;8.6;;;;;;;18.51;100;95445;;;;
2019/08/29 04:18:27;;;;;;;9.849999;8.6;;;;;;;18.51;100;95445;;;;
2019/08/29 04:19:28;;;;;;;9.849999;8.6;;;;;;;18.51;100;95445;;;;
2019/08/29 04:20:30;;;;;;;9.849999;8.6;;;;;;;18.51;100;95445;;;;
2019/08/29 04:21:31;;;;;;;9.849999;8.6;;;;;;;18.51;100;95445;;;;
2019/08/29 04:22:32;;;;;;;8.799999;7.9;;;;;;;18.46;100;95453.78;;;;
2019/08/29 04:23:33;;;;;;;8.799999;7.9;;;;;;;18.46;100;95453.78;;;;
2019/08/29 04:24:35;;;;;;;8.799999;7.9;;;;;;;18.46;100;95453.78;;;;
2019/08/29 04:25:36;;;;;;;9.700001;8.8;;;;;;;18.51;100;95451.84;;;;
2019/08/29 04:26:37;;;;;;;9.700001;8.8;;;;;;;18.51;100;95451.84;;;;
2019/08/29 04:27:38;;;;;;;9.700001;8.8;;;;;;;18.51;100;95451.84;;;;
2019/08/29 04:28:39;;;;;;;9.700001;8.8;;;;;;;18.51;100;95451.84;;;;
2019/08/29 04:29:40;;;;;;;9.700001;8.8;;;;;;;18.51;100;95451.84;;;;
2019/08/29 04:30:41;;;;;;;9.700001;8.8;;;;;;;18.51;100;95451.84;;;;
2019/08/29 04:31:43;;;;;;;9.700001;8.8;;;;;;;18.51;100;95451.84;;;;
2019/08/29 04:32:44;;;;;;;9.700001;8.8;;;;;;;18.51;100;95451.84;;;;
2019/08/29 04:33:45;;;;;;;9.700001;8.8;;;;;;;18.51;100;95451.84;;;;
2019/08/29 04:34:46;;;;;;;9.700001;8.8;;;;;;;18.51;100;95451.84;;;;
2019/08/29 04:35:47;;;;;;;9.200002;8.1;;;;;;;18.51;100;95466.09;;;;
2019/08/29 04:36:48;;;;;;;9.200002;8.1;;;;;;;18.51;100;95466.09;;;;
2019/08/29 04:37:50;;;;;;;9.200002;8.1;;;;;;;18.51;100;95466.09;;;;
2019/08/29 04:38:51;;;;;;;9.200002;8.1;;;;;;;18.51;100;95466.09;;;;
2019/08/29 04:39:52;;;;;;;9.200002;8.1;;;;;;;18.51;100;95466.09;;;;
2019/08/29 04:40:53;;;;;;;9.200002;8.1;;;;;;;18.51;100;95466.09;;;;
2019/08/29 04:41:54;;;;;;;9.200002;8.1;;;;;;;18.51;100;95466.09;;;;
2019/08/29 04:42:55;;;;;;;9.200002;8.1;;;;;;;18.51;100;95466.09;;;;
2019/08/29 04:43:56;;;;;;;9.200002;8.1;;;;;;;18.51;100;95466.09;;;;
2019/08/29 04:44:58;;;;;;;9.200002;8.1;;;;;;;18.51;100;95466.09;;;;
2019/08/29 04:45:59;;;;;;;9.200002;8.1;;;;;;;18.51;100;95466.09;;;;
2019/08/29 04:47:00;;;;;;;10.65;9.05;;;;;;;18.51;100;95464.14;;;;
2019/08/29 04:48:01;;;;;;;10.65;9.05;;;;;;;18.51;100;95464.14;;;;
2019/08/29 04:49:02;;;;;;;10.65;9.05;;;;;;;18.51;100;95464.14;;;;
2019/08/29 04:50:03;;;;;;;10.65;9.05;;;;;;;18.51;100;95464.14;;;;
2019/08/29 04:51:06;;;;;;;10.65;9.05;;;;;;;18.51;100;95464.14;;;;
2019/08/29 04:52:07;;;;;;;10.65;9.05;;;;;;;18.51;100;95464.14;;;;
2019/08/29 04:53:08;;;;;;;10.65;9.05;;;;;;;18.51;100;95464.14;;;;
2019/08/29 04:54:09;;;;;;;10.65;9.05;;;;;;;18.51;100;95464.14;;;;
2019/08/29 04:55:10;;;;;;;10.65;9.05;;;;;;;18.51;100;95464.14;;;;
2019/08/29 04:56:12;;;;;;;10.65;9.05;;;;;;;18.51;100;95464.14;;;;
2019/08/29 04:57:13;;;;;;;9.299998;8.399999;;;;;;;18.49;100;95466.91;;;;
2019/08/29 04:58:15;;;;;;;9.299998;8.399999;;;;;;;18.49;100;95466.91;;;;
2019/08/29 04:59:16;;;;;;;9.299998;8.399999;;;;;;;18.49;100;95466.91;;;;
2019/08/29 05:00:17;;;;;;;9.299998;8.399999;;;;;;;18.49;100;95466.91;;;;
2019/08/29 05:01:20;;;;;;;9.299998;8.399999;;;;;;;18.49;100;95466.91;;;;
2019/08/29 05:02:22;;;;;;;9.299998;8.399999;;;;;;;18.49;100;95466.91;;;;
2019/08/29 05:03:23;;;;;;;9.299998;8.399999;;;;;;;18.49;100;95466.91;;;;
2019/08/29 05:04:24;;;;;;;9.299998;8.399999;;;;;;;18.49;100;95466.91;;;;
2019/08/29 05:05:25;;;;;;;9.299998;8.399999;;;;;;;18.49;100;95466.91;;;;
2019/08/29 05:06:30;;;;;;;9.299998;8.399999;;;;;;;18.49;100;95466.91;;;;
2019/08/29 05:07:31;;;;;;;9.099998;8.25;;;;;;;18.57;100;95483.67;;;;
2019/08/29 05:08:33;;;;;;;9.099998;8.25;;;;;;;18.57;100;95483.67;;;;
2019/08/29 05:09:34;;;;;;;9.099998;8.25;;;;;;;18.57;100;95483.67;;;;
2019/08/29 05:10:35;;;;;;;9.099998;8.25;;;;;;;18.57;100;95483.67;;;;
2019/08/29 05:11:36;;;;;;;9.099998;8.25;;;;;;;18.57;100;95483.67;;;;
2019/08/29 05:12:37;;;;;;;9.099998;8.25;;;;;;;18.57;100;95483.67;;;;
2019/08/29 05:13:38;;;;;;;9.099998;8.25;;;;;;;18.57;100;95483.67;;;;
2019/08/29 05:14:40;;;;;;;9.099998;8.25;;;;;;;18.57;100;95483.67;;;;
2019/08/29 05:15:41;;;;;;;9.099998;8.25;;;;;;;18.57;100;95483.67;;;;
2019/08/29 05:16:42;;;;;;;9.099998;8.25;;;;;;;18.57;100;95483.67;;;;
2019/08/29 05:17:43;;;;;;;9.099998;8.25;;;;;;;18.57;100;95483.67;;;;
2019/08/29 05:18:45;;;;;;;10.6;8.800001;;;;;;;18.65;100;95487.2;;;;
2019/08/29 05:19:46;;;;;;;10.6;8.800001;;;;;;;18.65;100;95487.2;;;;
2019/08/29 05:20:47;;;;;;;10.6;8.800001;;;;;;;18.65;100;95487.2;;;;
2019/08/29 05:21:48;;;;;;;10.6;8.800001;;;;;;;18.65;100;95487.2;;;;
2019/08/29 05:22:49;;;;;;;10.6;8.800001;;;;;;;18.65;100;95487.2;;;;
2019/08/29 05:23:51;;;;;;;10.6;8.800001;;;;;;;18.65;100;95487.2;;;;
2019/08/29 05:24:52;;;;;;;10.6;8.800001;;;;;;;18.65;100;95487.2;;;;
2019/08/29 05:25:53;;;;;;;10.6;8.800001;;;;;;;18.65;100;95487.2;;;;
2019/08/29 05:26:54;;;;;;;10.6;8.800001;;;;;;;18.65;100;95487.2;;;;
2019/08/29 05:27:55;;;;;;;10.6;8.800001;;;;;;;18.65;100;95487.2;;;;
2019/08/29 05:28:57;;;;;;;10.6;8.799998;;;;;;;18.87;100;95495.28;;;;
2019/08/29 05:29:58;;;;;;;10.6;8.799998;;;;;;;18.87;100;95495.28;;;;
2019/08/29 05:30:59;;;;;;;10.6;8.799998;;;;;;;18.87;100;95495.28;;;;
2019/08/29 05:32:01;;;;;;;10.6;8.799998;;;;;;;18.87;100;95495.28;;;;
2019/08/29 05:33:02;;;;;;;10.6;8.799998;;;;;;;18.87;100;95495.28;;;;
2019/08/29 05:34:03;;;;;;;10.6;8.799998;;;;;;;18.87;100;95495.28;;;;
2019/08/29 05:35:04;;;;;;;10.6;8.799998;;;;;;;18.87;100;95495.28;;;;
2019/08/29 05:36:07;;;;;;;10.6;8.799998;;;;;;;18.87;100;95495.28;;;;
2019/08/29 05:37:08;;;;;;;10.6;8.799998;;;;;;;18.87;100;95495.28;;;;
2019/08/29 05:38:09;;;;;;;10.6;8.799998;;;;;;;18.87;100;95495.28;;;;
2019/08/29 05:39:10;;;;;;;9.349999;8.45;;;;;;;19.17;100;95504.69;;;;
2019/08/29 05:40:12;;;;;;;9.349999;8.45;;;;;;;19.17;100;95504.69;;;;
2019/08/29 05:41:15;;;;;;;9.349999;8.45;;;;;;;19.17;100;95504.69;;;;
2019/08/29 05:42:16;;;;;;;9.349999;8.45;;;;;;;19.17;100;95504.69;;;;
2019/08/29 05:43:17;;;;;;;9.349999;8.45;;;;;;;19.17;100;95504.69;;;;
2019/08/29 05:44:18;;;;;;;9.349999;8.45;;;;;;;19.17;100;95504.69;;;;
2019/08/29 05:45:19;;;;;;;9.349999;8.45;;;;;;;19.17;100;95504.69;;;;
2019/08/29 05:46:22;;;;;;;9.349999;8.45;;;;;;;19.17;100;95504.69;;;;
2019/08/29 05:47:23;;;;;;;9.349999;8.45;;;;;;;19.17;100;95504.69;;;;
2019/08/29 05:48:24;;;;;;;9.349999;8.45;;;;;;;19.17;100;95504.69;;;;
2019/08/29 05:49:25;;;;;;;9.349999;8.45;;;;;;;19.17;100;95504.69;;;;
2019/08/29 05:50:26;;;;;;;9.000001;8.049999;;;;;;;19.68;100;95505.13;;;;
2019/08/29 05:51:29;;;;;;;9.000001;8.049999;;;;;;;19.68;100;95505.13;;;;
2019/08/29 05:52:30;;;;;;;9.000001;8.049999;;;;;;;19.68;100;95505.13;;;;
2019/08/29 05:53:31;;;;;;;9.000001;8.049999;;;;;;;19.68;100;95505.13;;;;
2019/08/29 05:54:32;;;;;;;9.000001;8.049999;;;;;;;19.68;100;95505.13;;;;
2019/08/29 05:55:33;;;;;;;9.000001;8.049999;;;;;;;19.68;100;95505.13;;;;
2019/08/29 05:56:35;;;;;;;9.000001;8.049999;;;;;;;19.68;100;95505.13;;;;